Time;durP1;ratioP1;P1;durP2;ratioP2;P2;SDS_P1;SDS_P2;PMS_P1;PMS_P2;Temp;Humidity;BMP_temperature;BMP_pressure;BME280_temperature;BME280_humidity;BME280_pressure;Samples;Min_cycle;Max_cycle;Signal;HPM_P1;HPM_P2
2023/05/16 00:00:26;;;;;;;19.42;3.90;;;9.60;99.90;;;;;;4929295;28;20482;-85
2023/05/16 00:02:52;;;;;;;19.08;3.65;;;9.60;99.90;;;;;;4929100;28;20510;-84
2023/05/16 00:05:18;;;;;;;18.90;3.67;;;9.50;99.90;;;;;;4929472;28;20521;-86
2023/05/16 00:07:46;;;;;;;16.63;3.75;;;9.50;99.90;;;;;;4945586;28;20051;-85
2023/05/16 00:10:12;;;;;;;17.98;3.35;;;9.40;99.90;;;;;;4946082;28;20050;-85
2023/05/16 00:12:39;;;;;;;16.73;3.35;;;9.40;99.90;;;;;;4929422;28;20046;-85
2023/05/16 00:15:11;;;;;;;15.57;3.40;;;9.40;99.90;;;;;;4977053;28;20131;-85
2023/05/16 00:17:37;;;;;;;15.63;3.20;;;9.20;99.90;;;;;;4929731;28;20043;-86
2023/05/16 00:20:07;;;;;;;16.02;3.25;;;9.30;99.90;;;;;;4946237;28;20502;-83
2023/05/16 00:22:33;;;;;;;19.63;3.63;;;9.50;99.90;;;;;;4945961;28;20537;-86
2023/05/16 00:24:59;;;;;;;14.63;3.42;;;9.30;99.90;;;;;;4945051;28;20038;-85
2023/05/16 00:27:25;;;;;;;19.52;3.70;;;9.20;99.90;;;;;;4945310;28;20050;-85
2023/05/16 00:29:51;;;;;;;19.92;3.55;;;9.20;99.90;;;;;;4894343;29;20055;-86
2023/05/16 00:32:17;;;;;;;17.13;3.35;;;9.20;99.90;;;;;;4909649;29;20122;-84
2023/05/16 00:34:43;;;;;;;18.58;3.55;;;9.00;99.90;;;;;;4957119;29;20566;-85
2023/05/16 00:37:09;;;;;;;15.25;3.40;;;9.10;99.90;;;;;;4925157;29;20182;-85
2023/05/16 00:39:34;;;;;;;16.75;3.22;;;9.00;99.90;;;;;;4909408;29;20134;-85
2023/05/16 00:42:00;;;;;;;16.23;3.50;;;9.00;99.90;;;;;;4909651;29;20039;-84
2023/05/16 00:44:27;;;;;;;17.73;3.63;;;9.00;99.90;;;;;;4924542;29;20130;-85
2023/05/16 00:46:53;;;;;;;16.98;3.25;;;8.90;99.90;;;;;;4924877;29;20138;-84
2023/05/16 00:49:20;;;;;;;15.43;3.30;;;9.00;99.90;;;;;;4957033;29;20447;-84
2023/05/16 00:51:46;;;;;;;18.73;3.38;;;8.90;99.90;;;;;;4925177;29;20098;-85
2023/05/16 00:54:12;;;;;;;19.30;3.40;;;8.90;99.90;;;;;;4924616;29;20043;-84
2023/05/16 00:56:38;;;;;;;17.05;3.58;;;8.90;99.90;;;;;;4956750;29;20043;-84
2023/05/16 00:59:04;;;;;;;16.85;3.58;;;8.90;99.90;;;;;;4909050;29;20519;-84
2023/05/16 01:01:31;;;;;;;20.75;3.70;;;8.80;99.90;;;;;;4939749;29;20126;-84
2023/05/16 01:03:57;;;;;;;13.50;3.10;;;8.80;99.90;;;;;;4908313;29;20102;-83
2023/05/16 01:06:23;;;;;;;17.23;3.42;;;8.80;99.90;;;;;;4924208;29;20047;-83
2023/05/16 01:08:49;;;;;;;16.35;3.33;;;8.80;99.90;;;;;;4924080;29;20082;-83
2023/05/16 01:11:34;;;;;;;16.23;3.20;;;8.80;99.90;;;;;;4923728;29;20089;-83
2023/05/16 01:14:27;;;;;;;17.70;3.13;;;8.70;99.90;;;;;;4923880;29;20049;-84
2023/05/16 01:17:24;;;;;;;18.27;3.30;;;8.70;99.90;;;;;;4923840;29;20122;-83
2023/05/16 01:20:02;;;;;;;15.27;3.17;;;8.70;99.90;;;;;;4939823;29;20050;-84
2023/05/16 01:23:16;;;;;;;16.73;3.30;;;8.60;99.90;;;;;;4924669;29;20050;-84
2023/05/16 01:26:06;;;;;;;19.05;3.10;;;8.60;99.90;;;;;;4935907;29;20179;-84
2023/05/16 01:28:31;;;;;;;17.27;3.45;;;8.60;99.90;;;;;;4949043;28;20533;-84
2023/05/16 01:30:57;;;;;;;16.40;3.13;;;8.50;99.90;;;;;;4943421;28;20051;-83
2023/05/16 01:33:23;;;;;;;18.73;3.30;;;8.50;99.90;;;;;;4975567;28;20039;-84
2023/05/16 01:36:10;;;;;;;13.88;2.80;;;8.50;99.90;;;;;;4944067;28;20046;-84
2023/05/16 01:39:12;;;;;;;16.00;2.85;;;8.50;99.90;;;;;;4965141;28;20046;-84
2023/05/16 01:42:05;;;;;;;14.40;3.08;;;8.40;99.90;;;;;;4972430;28;20057;-84
2023/05/16 01:44:47;;;;;;;15.27;2.92;;;8.40;99.90;;;;;;4981037;28;20525;-84
2023/05/16 01:47:15;;;;;;;15.32;2.97;;;8.40;99.90;;;;;;4945869;28;20053;-84
2023/05/16 01:49:56;;;;;;;13.43;2.78;;;8.40;99.90;;;;;;4943857;28;20047;-83
2023/05/16 01:52:45;;;;;;;18.98;2.92;;;8.40;99.90;;;;;;4942784;28;20050;-84
2023/05/16 01:55:18;;;;;;;15.75;2.90;;;8.40;99.90;;;;;;4942381;28;20031;-84
2023/05/16 01:57:46;;;;;;;14.20;2.80;;;8.40;99.90;;;;;;4973941;28;20122;-83
2023/05/16 02:00:12;;;;;;;14.38;3.20;;;8.30;99.90;;;;;;4973954;28;20051;-84
2023/05/16 02:02:38;;;;;;;14.00;2.67;;;8.30;99.90;;;;;;4942371;28;20054;-85
2023/05/16 02:05:04;;;;;;;16.10;2.83;;;8.30;99.90;;;;;;4942079;28;20049;-84
2023/05/16 02:07:33;;;;;;;15.52;3.00;;;8.30;99.90;;;;;;4925907;28;20050;-83
2023/05/16 02:09:59;;;;;;;14.48;2.90;;;8.30;99.90;;;;;;4974062;28;20041;-83
2023/05/16 02:12:25;;;;;;;13.57;2.95;;;8.20;99.90;;;;;;4910017;28;20570;-84
2023/05/16 02:14:51;;;;;;;15.60;2.65;;;8.20;99.90;;;;;;4942388;28;20097;-84
2023/05/16 02:17:17;;;;;;;16.23;2.55;;;8.20;99.90;;;;;;4942553;28;20074;-84
2023/05/16 02:19:42;;;;;;;15.93;2.75;;;8.10;99.90;;;;;;4941528;28;20043;-84
2023/05/16 02:22:08;;;;;;;14.25;2.72;;;8.10;99.90;;;;;;4941745;28;20046;-84
2023/05/16 02:24:35;;;;;;;15.73;2.70;;;8.10;99.90;;;;;;4973800;28;20093;-83
2023/05/16 02:27:00;;;;;;;13.10;2.53;;;8.10;99.90;;;;;;4941257;28;20043;-84
2023/05/16 02:29:26;;;;;;;12.10;2.60;;;8.00;99.90;;;;;;4941241;28;20069;-83
2023/05/16 02:31:52;;;;;;;13.90;2.55;;;8.00;99.90;;;;;;4941438;28;20498;-83
2023/05/16 02:34:18;;;;;;;14.90;2.63;;;8.00;99.90;;;;;;4925652;28;20043;-83
2023/05/16 02:36:44;;;;;;;13.93;2.58;;;8.10;99.90;;;;;;4925755;28;20046;-83
2023/05/16 02:39:10;;;;;;;14.23;2.60;;;8.00;99.90;;;;;;4910240;28;20494;-83
2023/05/16 02:41:36;;;;;;;14.02;2.60;;;8.00;99.90;;;;;;4973544;28;20050;-83
2023/05/16 02:44:02;;;;;;;12.55;2.40;;;8.00;99.90;;;;;;4925688;28;20133;-83
2023/05/16 02:46:30;;;;;;;15.02;2.70;;;7.90;99.90;;;;;;4941467;28;20182;-84
2023/05/16 02:48:56;;;;;;;15.48;2.55;;;7.90;99.90;;;;;;4940914;28;20374;-83
2023/05/16 02:51:24;;;;;;;17.23;2.85;;;7.80;99.90;;;;;;4941626;28;20130;-83
2023/05/16 02:53:51;;;;;;;14.18;2.60;;;7.80;99.90;;;;;;4942099;28;20549;-83
2023/05/16 02:56:17;;;;;;;13.77;2.75;;;7.80;99.90;;;;;;4973265;28;20101;-84
2023/05/16 02:58:47;;;;;;;13.20;2.65;;;7.80;99.90;;;;;;4941749;28;20126;-84
2023/05/16 03:01:14;;;;;;;14.23;2.65;;;7.80;99.90;;;;;;4973980;28;20103;-84
2023/05/16 03:03:40;;;;;;;11.52;2.53;;;7.80;99.90;;;;;;4957692;28;20043;-84
2023/05/16 03:06:06;;;;;;;15.52;2.65;;;7.70;99.90;;;;;;4973267;28;20083;-83
2023/05/16 03:08:33;;;;;;;15.23;2.80;;;7.70;99.90;;;;;;4973158;28;20089;-84
2023/05/16 03:11:00;;;;;;;15.27;2.97;;;7.60;99.90;;;;;;4976245;28;20053;-84
2023/05/16 03:13:26;;;;;;;13.60;2.60;;;7.60;99.90;;;;;;4945712;28;20042;-84
2023/05/16 03:15:52;;;;;;;16.45;2.70;;;7.60;99.90;;;;;;4978141;28;20046;-84
2023/05/16 03:18:18;;;;;;;12.60;2.60;;;7.60;99.90;;;;;;4929685;28;20470;-84
2023/05/16 03:20:43;;;;;;;14.93;2.53;;;7.60;99.90;;;;;;4946994;28;20093;-85
2023/05/16 03:23:09;;;;;;;13.18;2.28;;;7.50;99.90;;;;;;4946754;28;20050;-82
2023/05/16 03:25:36;;;;;;;12.70;2.42;;;7.60;99.90;;;;;;4977134;28;20517;-82
2023/05/16 03:28:08;;;;;;;13.20;2.50;;;7.60;99.90;;;;;;4944663;28;20070;-82
2023/05/16 03:30:35;;;;;;;13.30;2.70;;;7.70;99.90;;;;;;4976669;28;20051;-82
2023/05/16 03:33:00;;;;;;;12.82;2.55;;;7.70;99.90;;;;;;4976669;28;20125;-83
2023/05/16 03:35:27;;;;;;;11.80;2.50;;;7.70;99.90;;;;;;4976758;28;20077;-83
2023/05/16 03:37:53;;;;;;;13.05;2.65;;;7.80;99.90;;;;;;4913658;28;20453;-83
2023/05/16 03:40:20;;;;;;;14.73;2.80;;;7.80;99.90;;;;;;4929557;28;20042;-84
2023/05/16 03:42:46;;;;;;;13.05;2.78;;;7.80;99.90;;;;;;4944307;28;20098;-83
2023/05/16 03:45:12;;;;;;;13.50;2.50;;;7.70;99.90;;;;;;4944672;28;20494;-83
2023/05/16 03:47:38;;;;;;;13.90;2.70;;;7.80;99.90;;;;;;4944930;28;20509;-83
2023/05/16 03:50:04;;;;;;;13.30;2.75;;;7.60;99.90;;;;;;4976515;28;20105;-83
2023/05/16 03:52:30;;;;;;;13.55;2.78;;;7.80;99.90;;;;;;4928895;28;20045;-83
2023/05/16 03:54:56;;;;;;;12.35;2.50;;;7.80;99.90;;;;;;4944883;28;20039;-83
2023/05/16 03:57:22;;;;;;;14.32;2.78;;;7.70;99.90;;;;;;4976858;28;20049;-83
2023/05/16 03:59:47;;;;;;;14.77;2.38;;;7.70;99.90;;;;;;4944956;28;20043;-82
2023/05/16 04:02:16;;;;;;;13.02;2.70;;;7.70;99.90;;;;;;4976197;28;20049;-83
2023/05/16 04:04:42;;;;;;;16.30;2.70;;;7.70;99.90;;;;;;4944485;28;20046;-83
2023/05/16 04:07:08;;;;;;;16.40;2.60;;;7.70;99.90;;;;;;4944936;28;20056;-83
2023/05/16 04:09:37;;;;;;;16.02;2.67;;;7.80;99.90;;;;;;4944383;28;20078;-83
2023/05/16 04:12:03;;;;;;;18.00;2.60;;;7.80;99.90;;;;;;4976858;28;20510;-83
2023/05/16 04:14:29;;;;;;;15.75;2.70;;;7.90;99.90;;;;;;4929596;28;20053;-83
2023/05/16 04:16:55;;;;;;;16.05;2.78;;;7.90;99.90;;;;;;4977203;28;20042;-81
2023/05/16 04:19:20;;;;;;;11.57;2.35;;;8.00;99.90;;;;;;4976268;28;20043;-82
2023/05/16 04:21:46;;;;;;;13.50;2.58;;;8.00;99.90;;;;;;4927748;28;20089;-82
2023/05/16 04:24:12;;;;;;;14.50;2.75;;;8.00;99.90;;;;;;4944264;28;20043;-81
2023/05/16 04:26:38;;;;;;;14.48;2.85;;;8.10;99.90;;;;;;4927679;28;20082;-81
2023/05/16 04:29:04;;;;;;;15.25;2.80;;;8.10;99.90;;;;;;4943489;28;20055;-81
2023/05/16 04:31:30;;;;;;;12.48;2.40;;;8.10;99.90;;;;;;4927688;28;20407;-82
2023/05/16 04:33:56;;;;;;;15.35;2.97;;;8.10;99.90;;;;;;4975700;28;20039;-81
2023/05/16 04:36:22;;;;;;;17.58;2.80;;;8.00;99.90;;;;;;4943551;28;20038;-82
2023/05/16 04:38:48;;;;;;;16.02;3.08;;;8.00;99.90;;;;;;4943425;28;20101;-81
2023/05/16 04:41:17;;;;;;;17.92;2.92;;;8.00;99.90;;;;;;4975598;28;20046;-82
2023/05/16 04:43:43;;;;;;;15.18;3.03;;;8.00;99.90;;;;;;4928237;28;20498;-82
2023/05/16 04:46:09;;;;;;;13.60;2.53;;;8.00;99.90;;;;;;4975249;28;20053;-82
2023/05/16 04:48:37;;;;;;;12.70;2.67;;;8.10;99.90;;;;;;4959286;28;20046;-81
2023/05/16 04:51:03;;;;;;;11.23;2.50;;;8.20;99.90;;;;;;4943238;28;20046;-82
2023/05/16 04:53:29;;;;;;;12.63;2.58;;;8.00;99.90;;;;;;4975406;28;20125;-82
2023/05/16 04:55:57;;;;;;;12.90;2.35;;;8.00;99.90;;;;;;4942964;28;20530;-82
2023/05/16 04:58:23;;;;;;;16.88;3.25;;;8.10;99.90;;;;;;4943196;28;20074;-83
2023/05/16 05:00:51;;;;;;;12.60;2.55;;;8.20;99.90;;;;;;4975162;28;20454;-83
2023/05/16 05:03:17;;;;;;;13.75;2.55;;;8.20;99.90;;;;;;4975067;28;20051;-83
2023/05/16 05:05:43;;;;;;;15.48;2.60;;;8.30;99.90;;;;;;4943419;28;20441;-83
2023/05/16 05:08:09;;;;;;;12.90;2.60;;;8.40;99.90;;;;;;4943079;28;20050;-82
2023/05/16 05:10:35;;;;;;;13.95;2.70;;;8.60;99.90;;;;;;4974881;28;20086;-83
2023/05/16 05:13:02;;;;;;;12.15;2.88;;;8.50;99.90;;;;;;4942733;28;20055;-83
2023/05/16 05:15:27;;;;;;;12.52;2.53;;;9.00;99.90;;;;;;4958758;28;20081;-82
2023/05/16 05:17:53;;;;;;;16.70;2.80;;;9.20;99.90;;;;;;4974867;28;20459;-82
2023/05/16 05:20:19;;;;;;;13.65;2.40;;;9.40;99.90;;;;;;4974598;28;20050;-82
2023/05/16 05:22:45;;;;;;;12.02;2.50;;;9.70;99.90;;;;;;4958828;28;20050;-83
2023/05/16 05:25:14;;;;;;;16.30;3.03;;;10.00;99.90;;;;;;4910318;28;20043;-83
2023/05/16 05:27:40;;;;;;;15.85;2.80;;;10.80;99.90;;;;;;4937102;28;20051;-82
2023/05/16 05:30:06;;;;;;;11.60;2.50;;;11.40;99.90;;;;;;4957475;28;20043;-83
2023/05/16 05:32:32;;;;;;;14.35;2.80;;;11.30;99.90;;;;;;4922100;28;20454;-83
2023/05/16 05:34:58;;;;;;;10.88;2.30;;;11.80;99.90;;;;;;4950047;29;20041;-83
2023/05/16 05:37:25;;;;;;;11.65;2.40;;;12.00;99.90;;;;;;4918072;28;20042;-82
2023/05/16 05:39:50;;;;;;;9.30;2.15;;;12.20;99.90;;;;;;4974529;28;20051;-83
2023/05/16 05:42:16;;;;;;;10.77;2.28;;;12.60;99.90;;;;;;4942657;28;20130;-83
2023/05/16 05:44:42;;;;;;;11.75;2.42;;;13.00;99.90;;;;;;4942536;28;20046;-83
2023/05/16 05:47:08;;;;;;;11.07;2.40;;;13.10;99.90;;;;;;4942696;28;20042;-83
2023/05/16 05:49:34;;;;;;;15.18;2.60;;;13.30;99.90;;;;;;4942375;28;20073;-83
2023/05/16 05:52:00;;;;;;;11.23;2.38;;;13.80;99.90;;;;;;4907058;29;20055;-84
2023/05/16 05:54:26;;;;;;;11.07;2.20;;;14.00;99.90;;;;;;4933130;28;20082;-84
2023/05/16 05:56:52;;;;;;;14.35;2.60;;;14.40;99.90;;;;;;4974213;28;20503;-83
2023/05/16 05:59:18;;;;;;;9.70;1.98;;;14.00;99.90;;;;;;4974027;28;20070;-82
2023/05/16 06:01:44;;;;;;;13.75;2.28;;;14.20;99.90;;;;;;4941822;28;20039;-83
2023/05/16 06:04:10;;;;;;;12.73;2.40;;;14.60;99.90;;;;;;4941826;28;20039;-82
2023/05/16 06:06:37;;;;;;;10.88;2.00;;;14.40;99.90;;;;;;4941575;28;20043;-83
2023/05/16 06:09:03;;;;;;;13.70;2.50;;;14.70;99.90;;;;;;4941622;28;20163;-82
2023/05/16 06:11:29;;;;;;;9.52;2.60;;;15.00;99.90;;;;;;4910111;28;20079;-82
2023/05/16 06:13:54;;;;;;;9.75;2.38;;;15.20;99.90;;;;;;4925788;28;20066;-81
2023/05/16 06:16:26;;;;;;;12.07;2.30;;;15.10;99.90;;;;;;4925994;28;20398;-82
2023/05/16 06:18:52;;;;;;;10.48;2.20;;;15.50;99.90;;;;;;4941844;28;20482;-82
2023/05/16 06:21:18;;;;;;;13.32;2.67;;;15.60;99.90;;;;;;4941502;28;20043;-81
2023/05/16 06:23:44;;;;;;;11.35;2.17;;;15.50;99.90;;;;;;4941393;28;20065;-81
2023/05/16 06:26:10;;;;;;;10.23;2.20;;;15.40;99.90;;;;;;4910217;28;20435;-80
2023/05/16 06:28:36;;;;;;;10.05;2.22;;;15.40;99.90;;;;;;4941296;28;20121;-81
2023/05/16 06:31:01;;;;;;;9.70;2.00;;;15.50;99.90;;;;;;4941131;28;20122;-80
2023/05/16 06:33:27;;;;;;;10.95;2.40;;;15.70;99.90;;;;;;4909817;28;20126;-81
2023/05/16 06:35:53;;;;;;;10.95;2.05;;;15.50;98.50;;;;;;4941334;28;20035;-81
2023/05/16 06:38:19;;;;;;;10.27;2.00;;;15.50;99.90;;;;;;4941481;28;20045;-81
2023/05/16 06:40:45;;;;;;;9.63;2.20;;;15.60;99.90;;;;;;4941496;28;20131;-81
2023/05/16 06:43:14;;;;;;;10.98;2.10;;;15.60;99.20;;;;;;4973487;28;20482;-81
2023/05/16 06:45:40;;;;;;;11.93;2.30;;;16.00;99.90;;;;;;4940970;28;20046;-81
2023/05/16 06:48:06;;;;;;;13.10;2.35;;;15.80;98.10;;;;;;4957450;28;20046;-81
2023/05/16 06:50:36;;;;;;;12.27;2.50;;;15.40;98.70;;;;;;4940244;28;20051;-81
2023/05/16 06:53:03;;;;;;;12.00;2.42;;;15.00;97.90;;;;;;4925754;28;20101;-83
2023/05/16 06:55:29;;;;;;;10.43;2.20;;;14.30;99.90;;;;;;4941465;28;20483;-82
2023/05/16 06:57:58;;;;;;;10.27;2.10;;;15.20;99.90;;;;;;4973255;28;20042;-82
2023/05/16 07:00:24;;;;;;;10.77;2.30;;;15.60;99.90;;;;;;4925411;28;20050;-81
2023/05/16 07:02:50;;;;;;;12.70;2.13;;;15.80;98.20;;;;;;4957111;28;20053;-81
2023/05/16 07:05:19;;;;;;;10.32;2.03;;;15.20;98.70;;;;;;4941221;28;20047;-81
2023/05/16 07:07:45;;;;;;;8.48;2.22;;;15.40;98.50;;;;;;4925075;28;20039;-81
2023/05/16 07:10:11;;;;;;;10.15;1.90;;;15.40;99.90;;;;;;4925382;28;20065;-82
2023/05/16 07:12:40;;;;;;;8.98;1.80;;;15.40;99.80;;;;;;4925320;28;20034;-82
2023/05/16 07:15:06;;;;;;;9.52;2.15;;;15.00;98.80;;;;;;4941155;28;20573;-82
2023/05/16 07:17:32;;;;;;;11.32;2.20;;;14.90;99.70;;;;;;4972867;28;20126;-82
2023/05/16 07:19:58;;;;;;;10.70;2.28;;;14.80;99.90;;;;;;4925266;28;20078;-83
2023/05/16 07:22:24;;;;;;;9.55;2.30;;;14.70;98.40;;;;;;4924906;28;20141;-82
2023/05/16 07:24:52;;;;;;;9.95;1.90;;;14.70;99.90;;;;;;4941054;28;20142;-82
2023/05/16 07:27:17;;;;;;;8.77;1.88;;;14.60;97.10;;;;;;4973047;28;20545;-82
2023/05/16 07:29:46;;;;;;;8.30;1.85;;;14.50;99.50;;;;;;4940506;28;20140;-82
2023/05/16 07:32:12;;;;;;;9.85;1.90;;;14.50;99.80;;;;;;4972644;28;20094;-82
2023/05/16 07:34:37;;;;;;;7.78;1.75;;;14.50;99.00;;;;;;4973032;28;20479;-80
2023/05/16 07:37:05;;;;;;;7.50;1.60;;;14.50;97.90;;;;;;4937715;29;20082;-82
2023/05/16 07:39:31;;;;;;;8.77;1.60;;;14.20;97.10;;;;;;4906016;29;20078;-81
2023/05/16 07:41:57;;;;;;;8.05;1.77;;;14.30;98.10;;;;;;4906215;29;20074;-81
2023/05/16 07:44:23;;;;;;;16.40;3.20;;;14.70;99.30;;;;;;4921818;29;20040;-82
2023/05/16 07:46:49;;;;;;;7.15;1.67;;;15.10;98.90;;;;;;4922149;29;20086;-83
2023/05/16 07:49:15;;;;;;;7.43;1.80;;;15.30;98.80;;;;;;4953394;29;20043;-83
2023/05/16 07:51:41;;;;;;;10.88;3.50;;;15.50;96.90;;;;;;4921395;29;20114;-82
2023/05/16 07:54:06;;;;;;;7.13;1.58;;;15.70;96.60;;;;;;4921735;29;20039;-82
2023/05/16 07:56:33;;;;;;;6.95;1.60;;;15.60;94.80;;;;;;4923143;29;20046;-81
2023/05/16 07:59:01;;;;;;;7.05;1.50;;;15.70;94.60;;;;;;4924879;29;20066;-81
2023/05/16 08:01:27;;;;;;;7.72;1.65;;;15.60;93.00;;;;;;4925474;29;20619;-81
2023/05/16 08:03:53;;;;;;;6.57;1.45;;;15.20;93.70;;;;;;4924929;29;20125;-81
2023/05/16 08:06:19;;;;;;;6.00;1.50;;;14.80;92.40;;;;;;4958179;28;20051;-82
2023/05/16 08:08:45;;;;;;;7.10;1.50;;;15.20;94.70;;;;;;4959674;28;20053;-81
2023/05/16 08:11:10;;;;;;;7.47;1.40;;;15.40;92.10;;;;;;4928000;28;20045;-81
2023/05/16 08:13:36;;;;;;;7.00;1.42;;;15.10;88.40;;;;;;4959868;28;20495;-81
2023/05/16 08:16:02;;;;;;;6.43;1.70;;;14.70;90.40;;;;;;4927974;28;20035;-80
2023/05/16 08:18:28;;;;;;;7.18;1.60;;;14.70;92.40;;;;;;4943677;28;20034;-82
2023/05/16 08:20:54;;;;;;;6.63;1.40;;;14.20;91.50;;;;;;4959828;28;20047;-81
2023/05/16 08:23:20;;;;;;;7.40;1.65;;;14.30;91.80;;;;;;4943706;28;20051;-81
2023/05/16 08:25:46;;;;;;;7.95;1.50;;;14.20;91.20;;;;;;4975578;28;20129;-81
2023/05/16 08:28:12;;;;;;;9.18;1.80;;;14.30;91.80;;;;;;4943361;28;20067;-82
2023/05/16 08:30:38;;;;;;;8.13;1.55;;;14.30;91.40;;;;;;4943572;28;20475;-80
2023/05/16 08:33:05;;;;;;;9.70;1.75;;;14.50;90.90;;;;;;4943406;28;20122;-82
2023/05/16 08:35:31;;;;;;;8.63;1.90;;;14.80;93.20;;;;;;4943764;28;20034;-82
2023/05/16 08:37:57;;;;;;;7.10;1.65;;;15.20;91.40;;;;;;4975330;28;20046;-81
2023/05/16 08:40:26;;;;;;;8.48;1.80;;;15.30;90.80;;;;;;4959543;28;20465;-81
2023/05/16 08:42:52;;;;;;;8.30;1.67;;;15.20;91.60;;;;;;4992053;28;20054;-80
2023/05/16 08:45:18;;;;;;;8.73;1.73;;;15.40;88.70;;;;;;4950354;28;20046;-82
2023/05/16 08:47:47;;;;;;;7.47;1.70;;;15.60;90.70;;;;;;4967254;28;20098;-82
2023/05/16 08:50:14;;;;;;;7.57;1.63;;;15.60;90.00;;;;;;4983920;28;20038;-83
2023/05/16 08:52:42;;;;;;;6.50;1.73;;;15.30;84.20;;;;;;4977124;28;20457;-82
2023/05/16 08:55:10;;;;;;;7.15;1.38;;;15.10;79.30;;;;;;4945984;28;20086;-81
2023/05/16 08:57:39;;;;;;;7.50;1.63;;;15.20;77.00;;;;;;4929024;28;20042;-82
2023/05/16 09:00:10;;;;;;;6.68;1.40;;;15.10;77.60;;;;;;4959766;28;20047;-80
2023/05/16 09:02:41;;;;;;;6.00;1.45;;;15.40;78.10;;;;;;4959415;28;20046;-81
2023/05/16 09:05:14;;;;;;;7.15;1.60;;;15.90;79.30;;;;;;4959217;28;20048;-81
2023/05/16 09:07:41;;;;;;;10.02;1.90;;;16.20;82.20;;;;;;4957659;28;20055;-81
2023/05/16 09:10:08;;;;;;;7.30;1.60;;;16.10;76.10;;;;;;4942643;28;20046;-82
2023/05/16 09:12:34;;;;;;;8.15;1.85;;;15.90;79.20;;;;;;4958506;28;20039;-81
2023/05/16 09:15:05;;;;;;;7.95;1.73;;;15.80;83.10;;;;;;4958800;28;20501;-81
2023/05/16 09:17:58;;;;;;;8.32;1.88;;;15.40;85.60;;;;;;4943199;28;20042;-82
2023/05/16 09:20:25;;;;;;;7.30;1.50;;;15.50;90.20;;;;;;4957579;28;20057;-80
2023/05/16 09:22:53;;;;;;;8.05;1.77;;;15.80;87.50;;;;;;4958895;28;20046;-81
2023/05/16 09:25:21;;;;;;;6.03;1.52;;;16.10;80.70;;;;;;4974583;28;20047;-82
2023/05/16 09:27:51;;;;;;;6.88;1.40;;;16.30;76.20;;;;;;4926413;28;20113;-82
2023/05/16 09:30:33;;;;;;;7.20;1.67;;;16.30;74.40;;;;;;4958231;28;20051;-82
2023/05/16 09:32:59;;;;;;;8.68;1.63;;;15.50;76.50;;;;;;4942236;28;20053;-82
2023/05/16 09:35:25;;;;;;;10.02;1.75;;;15.10;83.00;;;;;;4942353;28;20130;-83
2023/05/16 09:37:54;;;;;;;9.18;1.70;;;14.60;90.50;;;;;;4958168;28;20131;-83
2023/05/16 09:40:22;;;;;;;7.88;1.70;;;14.70;91.10;;;;;;4942172;28;20077;-83
2023/05/16 09:43:02;;;;;;;11.43;1.83;;;14.90;92.50;;;;;;4942351;28;20376;-82
2023/05/16 09:45:29;;;;;;;6.10;1.50;;;15.30;91.80;;;;;;4974161;28;20093;-82
2023/05/16 09:48:00;;;;;;;8.13;1.80;;;15.60;89.00;;;;;;4974071;28;20057;-83
2023/05/16 09:50:30;;;;;;;8.73;1.80;;;15.60;87.70;;;;;;4942022;28;20384;-82
2023/05/16 09:52:56;;;;;;;8.55;1.83;;;15.60;90.10;;;;;;4926920;28;20394;-83
2023/05/16 09:55:22;;;;;;;9.82;1.88;;;15.60;88.70;;;;;;4926307;28;20065;-83
2023/05/16 09:57:48;;;;;;;8.80;1.88;;;15.50;90.00;;;;;;4926042;28;20486;-84
2023/05/16 10:00:14;;;;;;;10.70;1.90;;;15.50;90.00;;;;;;4941718;28;20094;-83
2023/05/16 10:02:40;;;;;;;7.25;1.52;;;15.30;89.20;;;;;;4973812;28;20043;-84
2023/05/16 10:05:07;;;;;;;7.10;1.50;;;15.20;88.90;;;;;;4941736;28;20046;-84
2023/05/16 10:07:37;;;;;;;7.72;1.60;;;15.30;84.80;;;;;;4973595;28;20046;-84
2023/05/16 10:10:07;;;;;;;8.02;1.60;;;15.60;84.10;;;;;;4942017;28;20047;-84
2023/05/16 10:12:34;;;;;;;6.53;1.50;;;15.50;85.90;;;;;;4957552;28;20081;-84
2023/05/16 10:15:04;;;;;;;8.35;1.65;;;15.50;83.40;;;;;;4939849;28;20054;-83
2023/05/16 10:17:38;;;;;;;7.18;1.42;;;15.60;79.90;;;;;;4972682;28;20126;-83
2023/05/16 10:20:07;;;;;;;9.35;1.73;;;15.70;77.90;;;;;;4956980;28;20050;-82
2023/05/16 10:22:41;;;;;;;7.35;1.40;;;15.60;75.80;;;;;;4957678;28;20046;-84
2023/05/16 10:25:32;;;;;;;7.28;1.48;;;15.90;75.80;;;;;;4957679;28;20102;-84
2023/05/16 10:27:59;;;;;;;6.53;1.45;;;16.00;72.90;;;;;;4957061;28;20047;-84
2023/05/16 10:30:25;;;;;;;6.25;1.40;;;16.00;74.90;;;;;;4957181;28;20076;-83
2023/05/16 10:32:55;;;;;;;7.80;1.65;;;15.80;72.60;;;;;;4957480;28;20440;-86
2023/05/16 10:35:21;;;;;;;8.52;1.80;;;15.60;73.60;;;;;;4957511;28;20483;-84
2023/05/16 10:37:49;;;;;;;7.05;1.58;;;15.60;76.00;;;;;;4909648;28;20046;-82
2023/05/16 10:40:15;;;;;;;6.47;1.50;;;15.50;75.60;;;;;;4957053;28;20046;-84
2023/05/16 10:43:02;;;;;;;6.55;1.50;;;15.80;77.50;;;;;;4941513;28;20053;-85
2023/05/16 10:45:29;;;;;;;7.55;1.45;;;16.40;82.50;;;;;;4957087;28;20101;-85
2023/05/16 10:48:03;;;;;;;6.63;1.40;;;17.00;78.50;;;;;;4941154;28;20042;-85
2023/05/16 10:50:43;;;;;;;6.80;1.63;;;17.30;76.20;;;;;;4956928;28;20086;-86
2023/05/16 10:53:27;;;;;;;6.57;1.40;;;16.90;71.70;;;;;;4941245;28;20463;-84
2023/05/16 10:56:02;;;;;;;7.72;1.70;;;16.30;72.90;;;;;;4956922;28;20039;-84
2023/05/16 10:58:41;;;;;;;8.10;1.80;;;16.10;71.80;;;;;;4957287;28;20041;-83
2023/05/16 11:01:25;;;;;;;11.93;1.85;;;16.00;76.50;;;;;;4957147;28;20058;-84
2023/05/16 11:04:03;;;;;;;8.30;1.63;;;16.30;79.70;;;;;;4940910;28;20047;-85
2023/05/16 11:06:41;;;;;;;6.90;1.60;;;16.30;77.40;;;;;;4972869;28;20050;-84
2023/05/16 11:09:12;;;;;;;7.30;1.40;;;16.10;72.60;;;;;;4956991;28;20046;-84
2023/05/16 11:12:03;;;;;;;8.18;2.10;;;16.20;75.60;;;;;;4956808;28;20135;-84
2023/05/16 11:14:32;;;;;;;6.43;1.40;;;16.40;78.90;;;;;;4957361;28;20402;-83
2023/05/16 11:17:02;;;;;;;6.43;1.50;;;16.70;77.50;;;;;;4956828;28;20039;-85
2023/05/16 11:19:38;;;;;;;8.40;1.85;;;16.80;76.60;;;;;;4956521;28;20050;-83
2023/05/16 11:22:21;;;;;;;7.45;1.60;;;17.20;75.00;;;;;;4941071;28;20038;-83
2023/05/16 11:25:00;;;;;;;7.72;1.75;;;17.00;72.10;;;;;;4956741;28;20065;-84
2023/05/16 11:27:29;;;;;;;6.60;1.50;;;16.40;73.90;;;;;;4972707;28;20035;-83
2023/05/16 11:30:20;;;;;;;6.60;1.60;;;15.90;76.40;;;;;;4940626;28;20134;-83
2023/05/16 11:32:47;;;;;;;7.63;1.50;;;15.80;75.80;;;;;;4976143;28;20126;-84
2023/05/16 11:35:17;;;;;;;8.48;1.83;;;15.60;76.10;;;;;;4960639;28;20490;-85
2023/05/16 11:37:44;;;;;;;7.95;1.40;;;15.70;75.50;;;;;;4944494;28;20469;-83
2023/05/16 11:40:12;;;;;;;5.97;1.45;;;15.80;78.40;;;;;;4976651;28;20406;-85
2023/05/16 11:42:48;;;;;;;7.05;1.40;;;15.90;78.50;;;;;;4976519;28;20569;-84
2023/05/16 11:45:23;;;;;;;6.95;1.60;;;15.80;74.90;;;;;;4976584;28;20507;-84
2023/05/16 11:47:49;;;;;;;7.38;1.52;;;15.60;76.40;;;;;;4976565;28;20490;-84
2023/05/16 11:50:17;;;;;;;7.75;1.70;;;15.50;80.70;;;;;;4959962;28;20050;-85
2023/05/16 11:52:47;;;;;;;7.97;1.45;;;15.50;79.20;;;;;;4960222;28;20491;-83
2023/05/16 11:55:17;;;;;;;6.32;1.48;;;15.50;79.90;;;;;;4943915;28;20035;-81
2023/05/16 11:57:43;;;;;;;6.50;1.38;;;15.60;74.10;;;;;;4975895;28;20038;-84
2023/05/16 12:00:25;;;;;;;5.82;1.60;;;15.40;76.00;;;;;;4976059;28;20426;-83
2023/05/16 12:02:53;;;;;;;7.47;1.70;;;15.40;77.60;;;;;;4959893;28;20043;-83
2023/05/16 12:05:24;;;;;;;9.73;1.70;;;15.50;78.60;;;;;;4944155;28;20066;-83
2023/05/16 12:07:53;;;;;;;7.78;1.75;;;15.50;80.20;;;;;;4959842;28;20046;-82
2023/05/16 12:10:18;;;;;;;8.63;1.98;;;15.20;78.90;;;;;;4959907;28;20097;-84
2023/05/16 12:12:47;;;;;;;7.90;1.98;;;14.90;78.00;;;;;;4959730;28;20520;-82
2023/05/16 12:15:14;;;;;;;8.45;2.00;;;15.30;78.50;;;;;;4943693;28;20043;-82
2023/05/16 12:17:41;;;;;;;6.93;2.00;;;15.30;73.30;;;;;;4959874;28;20173;-82
2023/05/16 12:20:13;;;;;;;8.55;2.20;;;15.50;75.10;;;;;;4959843;28;20058;-83
2023/05/16 12:22:40;;;;;;;7.32;2.40;;;15.40;75.90;;;;;;4959693;28;20035;-84
2023/05/16 12:25:34;;;;;;;9.20;2.80;;;15.20;72.30;;;;;;4943765;28;20058;-82
2023/05/16 12:28:06;;;;;;;7.72;2.90;;;15.10;71.90;;;;;;4959327;28;20043;-81
2023/05/16 12:30:33;;;;;;;9.18;2.60;;;14.80;69.80;;;;;;4959260;28;20109;-80
2023/05/16 12:33:01;;;;;;;7.43;2.50;;;14.80;74.00;;;;;;4959324;28;20042;-82
2023/05/16 12:35:32;;;;;;;8.48;2.50;;;14.60;75.80;;;;;;4975721;28;20390;-82
2023/05/16 12:37:58;;;;;;;7.97;2.70;;;14.80;77.10;;;;;;4959403;28;20585;-85
2023/05/16 12:40:28;;;;;;;7.97;2.35;;;15.10;78.00;;;;;;4943534;28;20042;-81
2023/05/16 12:42:54;;;;;;;8.32;2.70;;;15.40;75.40;;;;;;4974935;28;20051;-82
2023/05/16 12:45:26;;;;;;;8.82;2.60;;;15.30;72.90;;;;;;4975596;28;20045;-84
2023/05/16 12:47:52;;;;;;;;;;;15.10;75.80;;;;;;4975598;28;20129;-83
2023/05/16 12:50:18;;;;;;;7.47;2.53;;;15.40;79.60;;;;;;4959238;28;20060;-83
2023/05/16 12:52:51;;;;;;;10.50;2.50;;;15.70;81.80;;;;;;4943326;28;20177;-84